Time,TemperatureF,DewpointF,PressureIn,WindDirection,WindDirectionDegrees,WindSpeedMPH,WindSpeedGustMPH,Humidity,HourlyPrecipIn,Conditions,Clouds,dailyrainin,SoftwareType,DateUTC
2013-09-01 00:02:00,69.3,55.7,0.00,NW,315,0.7,2.5,62,0.00,,,0.00,WUHU216HW,2013-09-01 07:02:00,
2013-09-01 00:07:00,69.3,55.7,0.00,NNW,338,1.3,2.5,62,0.00,,,0.00,WUHU216HW,2013-09-01 07:07:00,
2013-09-01 00:12:00,69.3,55.7,0.00,NNW,338,0.4,1.8,62,0.00,,,0.00,WUHU216HW,2013-09-01 07:12:00,
2013-09-01 00:17:00,69.1,55.5,0.00,NNW,338,0.0,1.1,62,0.00,,,0.00,WUHU216HW,2013-09-01 07:17:00,
2013-09-01 00:22:00,68.9,55.4,0.00,NNW,338,0.0,1.1,62,0.00,,,0.00,WUHU216HW,2013-09-01 07:22:00,
2013-09-01 00:27:00,68.8,55.2,0.00,North,0,0.9,1.8,62,0.00,,,0.00,WUHU216HW,2013-09-01 07:27:00,
2013-09-01 00:32:00,68.4,55.3,0.00,NNW,338,0.9,2.5,63,0.00,,,0.00,WUHU216HW,2013-09-01 07:32:00,
2013-09-01 00:37:00,68.0,55.4,0.00,NNW,338,1.1,2.5,64,0.00,,,0.00,WUHU216HW,2013-09-01 07:37:00,
2013-09-01 00:42:00,68.0,55.4,0.00,NW,315,2.0,2.0,64,0.00,,,0.00,WUHU216HW,2013-09-01 07:42:00,
2013-09-01 00:47:00,67.9,55.2,0.00,NW,315,1.8,2.0,64,0.00,,,0.00,WUHU216HW,2013-09-01 07:47:00,
2013-09-01 00:52:00,67.7,55.0,0.00,NW,315,1.8,2.5,64,0.00,,,0.00,WUHU216HW,2013-09-01 07:52:00,
2013-09-01 00:57:00,67.7,55.0,0.00,NW,315,2.2,2.5,64,0.00,,,0.00,WUHU216HW,2013-09-01 07:57:00,
2013-09-01 01:02:00,67.9,54.8,0.00,NW,315,2.0,2.2,63,0.00,,,0.00,WUHU216HW,2013-09-01 08:02:00,
2013-09-01 01:07:00,67.9,54.8,0.00,NW,315,1.8,2.0,63,0.00,,,0.00,WUHU216HW,2013-09-01 08:07:00,
2013-09-01 01:12:00,67.7,55.0,0.00,NNW,338,1.8,2.0,64,0.00,,,0.00,WUHU216HW,2013-09-01 08:12:00,
2013-09-01 01:17:00,67.5,54.9,0.00,NNW,338,1.8,2.0,64,0.00,,,0.00,WUHU216HW,2013-09-01 08:17:00,
2013-09-01 01:22:00,67.3,54.7,0.00,NNW,338,1.6,2.0,64,0.00,,,0.00,WUHU216HW,2013-09-01 08:22:00,
2013-09-01 01:27:00,67.1,54.9,0.00,NNW,338,2.5,2.9,65,0.00,,,0.00,WUHU216HW,2013-09-01 08:27:00,
2013-09-01 01:32:00,66.8,54.6,0.00,NNW,338,2.0,2.9,65,0.00,,,0.00,WUHU216HW,2013-09-01 08:32:00,
2013-09-01 01:37:00,66.4,54.7,0.00,NNW,338,2.0,2.7,66,0.00,,,0.00,WUHU216HW,2013-09-01 08:37:00,
2013-09-01 01:42:00,66.2,54.6,0.00,NNW,338,3.4,3.4,66,0.00,,,0.00,WUHU216HW,2013-09-01 08:42:00,
2013-09-01 01:47:00,66.2,54.6,0.00,NW,315,3.1,3.4,66,0.00,,,0.00,WUHU216HW,2013-09-01 08:47:00,
2013-09-01 01:52:00,66.1,54.4,0.00,NW,315,2.9,3.1,66,0.00,,,0.00,WUHU216HW,2013-09-01 08:52:00,
2013-09-01 01:57:00,66.1,54.4,0.00,NNW,338,1.3,3.4,66,0.00,,,0.00,WUHU216HW,2013-09-01 08:57:00,
2013-09-01 02:02:00,65.9,54.2,0.00,NW,315,2.5,3.4,66,0.00,,,0.00,WUHU216HW,2013-09-01 09:02:00,
2013-09-01 02:07:00,65.7,54.5,0.00,NNW,338,2.7,2.7,67,0.00,,,0.00,WUHU216HW,2013-09-01 09:07:00,
2013-09-01 02:12:00,65.7,54.5,0.00,NW,315,2.5,3.1,67,0.00,,,0.00,WUHU216HW,2013-09-01 09:12:00,
2013-09-01 02:17:00,65.7,54.5,0.00,NNW,338,1.8,3.1,67,0.00,,,0.00,WUHU216HW,2013-09-01 09:17:00,
2013-09-01 02:22:00,65.7,54.0,0.00,NW,315,1.8,1.8,66,0.00,,,0.00,WUHU216HW,2013-09-01 09:22:00,
2013-09-01 02:27:00,65.7,54.5,0.00,NW,315,2.0,2.0,67,0.00,,,0.00,WUHU216HW,2013-09-01 09:27:00,
2013-09-01 02:32:00,65.5,54.3,0.00,NNW,338,1.8,2.5,67,0.00,,,0.00,WUHU216HW,2013-09-01 09:32:00,
2013-09-01 02:37:00,65.3,54.1,0.00,NNW,338,1.8,2.9,67,0.00,,,0.00,WUHU216HW,2013-09-01 09:37:00,
2013-09-01 02:42:00,65.3,54.1,0.00,NW,315,2.9,2.9,67,0.00,,,0.00,WUHU216HW,2013-09-01 09:42:00,
2013-09-01 02:47:00,65.2,54.4,0.00,NW,315,1.8,2.9,68,0.00,,,0.00,WUHU216HW,2013-09-01 09:47:00,
2013-09-01 02:52:00,65.0,54.2,0.00,WNW,293,2.9,2.9,68,0.00,,,0.00,WUHU216HW,2013-09-01 09:52:00,
2013-09-01 02:57:00,65.0,54.2,0.00,North,0,1.8,2.9,68,0.00,,,0.00,WUHU216HW,2013-09-01 09:57:00,
2013-09-01 03:02:00,65.0,54.2,0.00,NNW,338,1.6,2.5,68,0.00,,,0.00,WUHU216HW,2013-09-01 10:02:00,
2013-09-01 03:07:00,64.8,54.5,0.00,NNW,338,0.0,1.8,69,0.00,,,0.00,WUHU216HW,2013-09-01 10:07:00,
2013-09-01 03:12:00,64.8,54.5,0.00,NNW,338,0.7,3.4,69,0.00,,,0.00,WUHU216HW,2013-09-01 10:12:00,
2013-09-01 03:17:00,64.6,54.7,0.00,NNW,338,0.9,3.4,70,0.00,,,0.00,WUHU216HW,2013-09-01 10:17:00,
2013-09-01 03:22:00,64.6,54.7,0.00,NNW,338,2.5,2.9,70,0.00,,,0.00,WUHU216HW,2013-09-01 10:22:00,
2013-09-01 03:27:00,64.4,54.9,0.00,NNW,338,1.1,2.5,71,0.00,,,0.00,WUHU216HW,2013-09-01 10:27:00,
2013-09-01 03:32:00,64.6,55.1,0.00,NW,315,0.7,3.4,71,0.00,,,0.00,WUHU216HW,2013-09-01 10:32:00,
2013-09-01 03:37:00,64.6,55.5,0.00,NW,315,3.6,3.6,72,0.00,,,0.00,WUHU216HW,2013-09-01 10:37:00,
2013-09-01 03:42:00,64.4,55.3,0.00,NW,315,1.8,3.6,72,0.00,,,0.00,WUHU216HW,2013-09-01 10:42:00,
2013-09-01 03:47:00,64.4,55.6,0.00,NNW,338,1.8,2.7,73,0.00,,,0.00,WUHU216HW,2013-09-01 10:47:00,
2013-09-01 03:52:00,64.8,56.0,0.00,NW,315,1.8,1.8,73,0.00,,,0.00,WUHU216HW,2013-09-01 10:52:00,
2013-09-01 03:57:00,65.0,56.9,0.00,NNW,338,2.5,2.5,75,0.00,,,0.00,WUHU216HW,2013-09-01 10:57:00,
2013-09-01 04:02:00,65.3,56.8,0.00,NW,315,2.9,2.9,74,0.00,,,0.00,WUHU216HW,2013-09-01 11:02:00,
2013-09-01 04:07:00,65.7,56.8,0.00,NNW,338,0.4,2.9,73,0.00,,,0.00,WUHU216HW,2013-09-01 11:07:00,
2013-09-01 04:12:00,65.5,56.3,0.00,NW,315,0.0,2.2,72,0.00,,,0.00,WUHU216HW,2013-09-01 11:12:00,
2013-09-01 04:17:00,65.2,55.9,0.00,SE,135,0.9,2.2,72,0.00,,,0.00,WUHU216HW,2013-09-01 11:17:00,
2013-09-01 04:22:00,65.3,57.2,0.00,SW,225,1.8,1.8,75,0.00,,,0.00,WUHU216HW,2013-09-01 11:22:00,
2013-09-01 04:27:00,65.7,56.8,0.00,NNW,338,0.0,1.8,73,0.00,,,0.00,WUHU216HW,2013-09-01 11:27:00,
2013-09-01 04:32:00,65.5,56.6,0.00,NNE,23,0.0,2.5,73,0.00,,,0.00,WUHU216HW,2013-09-01 11:32:00,
2013-09-01 04:37:00,65.3,56.4,0.00,NE,45,1.1,2.5,73,0.00,,,0.00,WUHU216HW,2013-09-01 11:37:00,
2013-09-01 04:42:00,65.2,56.7,0.00,WNW,293,1.6,3.6,74,0.00,,,0.00,WUHU216HW,2013-09-01 11:42:00,
2013-09-01 04:47:00,65.9,57.3,0.00,ESE,113,0.4,3.6,74,0.00,,,0.00,WUHU216HW,2013-09-01 11:47:00,
2013-09-01 04:52:00,65.9,56.6,0.00,NE,45,0.0,1.3,72,0.00,,,0.00,WUHU216HW,2013-09-01 11:52:00,
2013-09-01 04:57:00,65.9,57.3,0.00,West,270,1.3,1.3,74,0.00,,,0.00,WUHU216HW,2013-09-01 11:57:00,
2013-09-01 05:02:00,66.1,57.5,0.00,SSW,203,0.0,1.8,74,0.00,,,0.00,WUHU216HW,2013-09-01 12:02:00,
2013-09-01 05:07:00,66.4,57.5,0.00,NNW,338,1.1,1.8,73,0.00,,,0.00,WUHU216HW,2013-09-01 12:07:00,
2013-09-01 05:12:00,66.4,57.5,0.00,WNW,293,5.6,5.6,73,0.00,,,0.00,WUHU216HW,2013-09-01 12:12:00,
2013-09-01 05:17:00,66.6,57.2,0.00,South,180,0.7,5.6,72,0.00,,,0.00,WUHU216HW,2013-09-01 12:17:00,
2013-09-01 05:22:00,66.4,57.1,0.00,North,0,0.4,2.0,72,0.00,,,0.00,WUHU216HW,2013-09-01 12:22:00,
2013-09-01 05:27:00,66.4,57.1,0.00,NNW,338,1.8,2.7,72,0.00,,,0.00,WUHU216HW,2013-09-01 12:27:00,
2013-09-01 05:32:00,66.6,57.2,0.00,NNE,23,1.8,2.7,72,0.00,,,0.00,WUHU216HW,2013-09-01 12:32:00,
2013-09-01 05:37:00,66.6,57.2,0.00,NW,315,1.1,2.7,72,0.00,,,0.00,WUHU216HW,2013-09-01 12:37:00,
2013-09-01 05:42:00,66.6,57.2,0.00,NNW,338,3.1,3.1,72,0.00,,,0.00,WUHU216HW,2013-09-01 12:42:00,
2013-09-01 05:47:00,66.6,56.9,0.00,NW,315,2.0,3.4,71,0.00,,,0.00,WUHU216HW,2013-09-01 12:47:00,
2013-09-01 05:52:00,66.6,56.9,0.00,East,90,1.6,5.8,71,0.00,,,0.00,WUHU216HW,2013-09-01 12:52:00,
2013-09-01 05:57:00,66.6,56.9,0.00,ESE,113,2.0,5.8,71,0.00,,,0.00,WUHU216HW,2013-09-01 12:57:00,
2013-09-01 06:02:00,66.4,56.7,0.00,North,0,0.7,2.0,71,0.00,,,0.00,WUHU216HW,2013-09-01 13:02:00,
2013-09-01 06:07:00,66.2,56.9,0.00,NNW,338,2.9,2.9,72,0.00,,,0.00,WUHU216HW,2013-09-01 13:07:00,
2013-09-01 06:12:00,66.2,56.9,0.00,NNW,338,0.9,4.0,72,0.00,,,0.00,WUHU216HW,2013-09-01 13:12:00,
2013-09-01 06:17:00,66.2,56.9,0.00,NW,315,1.6,4.0,72,0.00,,,0.00,WUHU216HW,2013-09-01 13:17:00,
2013-09-01 06:22:00,66.2,56.9,0.00,NNE,23,1.8,2.2,72,0.00,,,0.00,WUHU216HW,2013-09-01 13:22:00,
2013-09-01 06:27:00,66.2,56.9,0.00,NNW,338,2.0,2.9,72,0.00,,,0.00,WUHU216HW,2013-09-01 13:27:00,
2013-09-01 06:32:00,66.1,56.8,0.00,West,270,3.4,5.1,72,0.00,,,0.00,WUHU216HW,2013-09-01 13:32:00,
2013-09-01 06:37:00,66.1,56.8,0.00,North,0,0.7,5.1,72,0.00,,,0.00,WUHU216HW,2013-09-01 13:37:00,
2013-09-01 06:42:00,66.1,56.8,0.00,NNW,338,0.4,3.4,72,0.00,,,0.00,WUHU216HW,2013-09-01 13:42:00,
2013-09-01 06:47:00,66.2,56.9,0.00,NNW,338,1.6,4.7,72,0.00,,,0.00,WUHU216HW,2013-09-01 13:47:00,
2013-09-01 06:52:00,66.1,56.8,0.00,East,90,0.2,4.7,72,0.00,,,0.00,WUHU216HW,2013-09-01 13:52:00,
2013-09-01 06:57:00,66.1,56.8,0.00,NNW,338,0.9,3.6,72,0.00,,,0.00,WUHU216HW,2013-09-01 13:57:00,
2013-09-01 07:02:00,65.9,56.6,0.00,North,0,0.4,3.6,72,0.00,,,0.00,WUHU216HW,2013-09-01 14:02:00,
2013-09-01 07:07:00,65.9,57.0,0.00,WSW,248,2.7,2.7,73,0.00,,,0.00,WUHU216HW,2013-09-01 14:07:00,
2013-09-01 07:12:00,65.9,57.0,0.00,WNW,293,2.2,3.4,73,0.00,,,0.00,WUHU216HW,2013-09-01 14:12:00,
2013-09-01 07:17:00,65.9,56.6,0.00,West,270,1.1,3.4,72,0.00,,,0.00,WUHU216HW,2013-09-01 14:17:00,
2013-09-01 07:22:00,65.9,56.6,0.00,North,0,0.0,1.1,72,0.00,,,0.00,WUHU216HW,2013-09-01 14:22:00,
2013-09-01 07:27:00,65.9,56.3,0.00,NNW,338,1.3,1.8,71,0.00,,,0.00,WUHU216HW,2013-09-01 14:27:00,
2013-09-01 07:32:00,65.7,56.1,0.00,ENE,68,0.0,1.8,71,0.00,,,0.00,WUHU216HW,2013-09-01 14:32:00,
2013-09-01 07:37:00,65.7,56.1,0.00,NW,315,0.2,1.8,71,0.00,,,0.00,WUHU216HW,2013-09-01 14:37:00,
2013-09-01 07:42:00,65.7,56.1,0.00,SW,225,0.0,2.0,71,0.00,,,0.00,WUHU216HW,2013-09-01 14:42:00,
2013-09-01 07:47:00,65.9,56.6,0.00,WNW,293,2.0,2.0,72,0.00,,,0.00,WUHU216HW,2013-09-01 14:47:00,
2013-09-01 07:52:00,66.1,56.3,0.00,NNW,338,0.0,2.0,71,0.00,,,0.00,WUHU216HW,2013-09-01 14:52:00,
2013-09-01 07:57:00,66.1,56.3,0.00,SSE,158,1.8,2.2,71,0.00,,,0.00,WUHU216HW,2013-09-01 14:57:00,
2013-09-01 08:02:00,66.2,56.2,0.00,WNW,293,0.2,2.2,70,0.00,,,0.00,WUHU216HW,2013-09-01 15:02:00,
2013-09-01 08:07:00,66.4,56.3,0.00,NW,315,1.8,2.7,70,0.00,,,0.00,WUHU216HW,2013-09-01 15:07:00,
2013-09-01 08:12:00,66.4,56.3,0.00,South,180,1.8,2.7,70,0.00,,,0.00,WUHU216HW,2013-09-01 15:12:00,
2013-09-01 08:17:00,66.6,56.5,0.00,ESE,113,0.9,1.8,70,0.00,,,0.00,WUHU216HW,2013-09-01 15:17:00,
2013-09-01 08:22:00,66.6,56.5,0.00,ENE,68,0.0,1.8,70,0.00,,,0.00,WUHU216HW,2013-09-01 15:22:00,
2013-09-01 08:27:00,66.6,56.5,0.00,NNE,23,0.2,1.1,70,0.00,,,0.00,WUHU216HW,2013-09-01 15:27:00,
2013-09-01 08:32:00,66.6,56.5,0.00,NW,315,2.9,2.9,70,0.00,,,0.00,WUHU216HW,2013-09-01 15:32:00,
2013-09-01 08:37:00,67.0,56.9,0.00,NW,315,0.4,2.9,70,0.00,,,0.00,WUHU216HW,2013-09-01 15:37:00,
2013-09-01 08:42:00,67.3,57.2,0.00,NNW,338,3.4,6.0,70,0.00,,,0.00,WUHU216HW,2013-09-01 15:42:00,
2013-09-01 08:47:00,67.7,57.2,0.00,NNW,338,2.9,6.0,69,0.00,,,0.00,WUHU216HW,2013-09-01 15:47:00,
2013-09-01 08:52:00,67.7,57.2,0.00,NW,315,0.9,2.9,69,0.00,,,0.00,WUHU216HW,2013-09-01 15:52:00,
2013-09-01 08:57:00,68.0,57.5,0.00,NW,315,0.0,2.7,69,0.00,,,0.00,WUHU216HW,2013-09-01 15:57:00,
2013-09-01 09:02:00,68.2,57.7,0.00,NW,315,2.9,3.1,69,0.00,,,0.00,WUHU216HW,2013-09-01 16:02:00,
2013-09-01 09:07:00,68.4,57.9,0.00,NW,315,2.5,6.3,69,0.00,,,0.00,WUHU216HW,2013-09-01 16:07:00,
2013-09-01 09:12:00,68.8,57.8,0.00,NW,315,4.5,6.3,68,0.00,,,0.00,WUHU216HW,2013-09-01 16:12:00,
2013-09-01 09:17:00,68.8,57.8,0.00,NNW,338,2.7,4.5,68,0.00,,,0.00,WUHU216HW,2013-09-01 16:17:00,
2013-09-01 09:22:00,68.9,58.0,0.00,NNW,338,2.5,3.8,68,0.00,,,0.00,WUHU216HW,2013-09-01 16:22:00,
2013-09-01 09:27:00,69.1,57.7,0.00,NNW,338,6.3,6.3,67,0.00,,,0.00,WUHU216HW,2013-09-01 16:27:00,
2013-09-01 09:32:00,69.3,57.4,0.00,NNW,338,1.8,8.3,66,0.00,,,0.00,WUHU216HW,2013-09-01 16:32:00,
2013-09-01 09:37:00,69.5,57.6,0.00,WNW,293,3.1,8.3,66,0.00,,,0.00,WUHU216HW,2013-09-01 16:37:00,
2013-09-01 09:42:00,69.5,57.6,0.00,NNW,338,0.4,3.6,66,0.00,,,0.00,WUHU216HW,2013-09-01 16:42:00,
2013-09-01 09:47:00,69.8,57.5,0.00,North,0,1.1,4.9,65,0.00,,,0.00,WUHU216HW,2013-09-01 16:47:00,
2013-09-01 09:52:00,70.0,57.7,0.00,NNW,338,3.6,4.9,65,0.00,,,0.00,WUHU216HW,2013-09-01 16:52:00,
2013-09-01 09:57:00,70.4,57.6,0.00,NNW,338,1.8,3.6,64,0.00,,,0.00,WUHU216HW,2013-09-01 16:57:00,
2013-09-01 10:02:00,70.4,57.6,0.00,SSE,158,2.0,2.9,64,0.00,,,0.00,WUHU216HW,2013-09-01 17:02:00,
2013-09-01 10:07:00,70.9,58.2,0.00,NNE,23,0.2,3.4,64,0.00,,,0.00,WUHU216HW,2013-09-01 17:07:00,
2013-09-01 10:12:00,71.3,58.1,0.00,North,0,0.4,4.0,63,0.00,,,0.00,WUHU216HW,2013-09-01 17:12:00,
2013-09-01 10:17:00,71.6,58.3,0.00,West,270,1.8,4.0,63,0.00,,,0.00,WUHU216HW,2013-09-01 17:17:00,
2013-09-01 10:22:00,71.8,58.5,0.00,North,0,0.4,4.7,63,0.00,,,0.00,WUHU216HW,2013-09-01 17:22:00,
2013-09-01 10:27:00,72.4,58.6,0.00,NNW,338,4.3,4.7,62,0.00,,,0.00,WUHU216HW,2013-09-01 17:27:00,
2013-09-01 10:32:00,72.5,58.8,0.00,WNW,293,2.9,6.9,62,0.00,,,0.00,WUHU216HW,2013-09-01 17:32:00,
2013-09-01 10:37:00,72.7,59.0,0.00,NNW,338,5.4,8.3,62,0.00,,,0.00,WUHU216HW,2013-09-01 17:37:00,
2013-09-01 10:42:00,72.7,59.0,0.00,WNW,293,4.7,8.3,62,0.00,,,0.00,WUHU216HW,2013-09-01 17:42:00,
2013-09-01 10:47:00,73.1,59.2,0.00,NNW,338,4.0,7.6,62,0.00,,,0.00,WUHU216HW,2013-09-01 17:47:00,
2013-09-01 10:52:00,73.3,59.4,0.00,WSW,248,2.5,7.6,62,0.00,,,0.00,WUHU216HW,2013-09-01 17:52:00,
2013-09-01 10:57:00,73.8,59.0,0.00,SE,135,2.7,5.6,60,0.00,,,0.00,WUHU216HW,2013-09-01 17:57:00,
2013-09-01 11:02:00,74.2,59.4,0.00,SSW,203,1.1,5.6,60,0.00,,,0.00,WUHU216HW,2013-09-01 18:02:00,
2013-09-01 11:07:00,74.9,59.1,0.00,NW,315,0.9,5.1,58,0.00,,,0.00,WUHU216HW,2013-09-01 18:07:00,
2013-09-01 11:12:00,75.6,59.3,0.00,SSE,158,1.8,3.1,57,0.00,,,0.00,WUHU216HW,2013-09-01 18:12:00,
2013-09-01 11:17:00,75.8,59.0,0.00,NW,315,4.7,4.7,56,0.00,,,0.00,WUHU216HW,2013-09-01 18:17:00,
2013-09-01 11:22:00,76.1,59.3,0.00,WSW,248,2.5,4.7,56,0.00,,,0.00,WUHU216HW,2013-09-01 18:22:00,
2013-09-01 11:27:00,76.3,59.4,0.00,South,180,0.7,3.6,56,0.00,,,0.00,WUHU216HW,2013-09-01 18:27:00,
2013-09-01 11:32:00,76.7,58.8,0.00,NNW,338,5.1,6.5,54,0.00,,,0.00,WUHU216HW,2013-09-01 18:32:00,
2013-09-01 11:37:00,77.2,59.2,0.00,NNW,338,3.8,6.5,54,0.00,,,0.00,WUHU216HW,2013-09-01 18:37:00,
2013-09-01 11:42:00,77.8,58.8,0.00,NW,315,1.1,5.4,52,0.00,,,0.00,WUHU216HW,2013-09-01 18:42:00,
2013-09-01 11:47:00,77.9,58.9,0.00,NNW,338,4.0,5.4,52,0.00,,,0.00,WUHU216HW,2013-09-01 18:47:00,
2013-09-01 11:52:00,77.9,59.4,0.00,WNW,293,3.4,8.1,53,0.00,,,0.00,WUHU216HW,2013-09-01 18:52:00,
2013-09-01 11:57:00,78.3,59.8,0.00,NW,315,1.6,8.1,53,0.00,,,0.00,WUHU216HW,2013-09-01 18:57:00,
2013-09-01 12:02:00,79.0,59.4,0.00,NW,315,4.3,7.6,51,0.00,,,0.00,WUHU216HW,2013-09-01 19:02:00,
2013-09-01 12:07:00,78.8,59.8,0.00,WNW,293,2.7,7.8,52,0.00,,,0.00,WUHU216HW,2013-09-01 19:07:00,
2013-09-01 12:12:00,79.2,59.5,0.00,NW,315,6.3,8.3,51,0.00,,,0.00,WUHU216HW,2013-09-01 19:12:00,
2013-09-01 12:17:00,79.2,59.5,0.00,WNW,293,6.9,9.8,51,0.00,,,0.00,WUHU216HW,2013-09-01 19:17:00,
2013-09-01 12:22:00,79.2,59.5,0.00,NW,315,6.9,10.3,51,0.00,,,0.00,WUHU216HW,2013-09-01 19:22:00,
2013-09-01 12:27:00,79.6,59.3,0.00,NNW,338,6.7,10.3,50,0.00,,,0.00,WUHU216HW,2013-09-01 19:27:00,
2013-09-01 12:32:00,80.3,59.9,0.00,NNW,338,7.2,9.2,50,0.00,,,0.00,WUHU216HW,2013-09-01 19:32:00,
2013-09-01 12:37:00,80.3,59.4,0.00,NW,315,2.7,7.2,49,0.00,,,0.00,WUHU216HW,2013-09-01 19:37:00,
2013-09-01 12:42:00,80.6,59.7,0.00,WNW,293,1.3,7.4,49,0.00,,,0.00,WUHU216HW,2013-09-01 19:42:00,
2013-09-01 12:47:00,80.8,59.9,0.00,NW,315,3.4,11.6,49,0.00,,,0.00,WUHU216HW,2013-09-01 19:47:00,
2013-09-01 12:52:00,80.6,59.7,0.00,WNW,293,8.5,11.6,49,0.00,,,0.00,WUHU216HW,2013-09-01 19:52:00,
2013-09-01 12:57:00,80.6,59.7,0.00,West,270,6.9,8.5,49,0.00,,,0.00,WUHU216HW,2013-09-01 19:57:00,
2013-09-01 13:02:00,80.8,60.5,0.00,NW,315,6.3,8.5,50,0.00,,,0.00,WUHU216HW,2013-09-01 20:02:00,
2013-09-01 13:07:00,81.0,60.0,0.00,WNW,293,3.4,8.5,49,0.00,,,0.00,WUHU216HW,2013-09-01 20:07:00,
2013-09-01 13:12:00,81.2,60.8,0.00,West,270,4.7,8.5,50,0.00,,,0.00,WUHU216HW,2013-09-01 20:12:00,
2013-09-01 13:17:00,81.9,60.2,0.00,NNW,338,5.8,9.6,48,0.00,,,0.00,WUHU216HW,2013-09-01 20:17:00,
2013-09-01 13:22:00,81.7,60.7,0.00,SSE,158,1.8,9.6,49,0.00,,,0.00,WUHU216HW,2013-09-01 20:22:00,
2013-09-01 13:27:00,82.4,60.7,0.00,North,0,4.0,7.8,48,0.00,,,0.00,WUHU216HW,2013-09-01 20:27:00,
2013-09-01 13:32:00,82.6,60.8,0.00,NW,315,4.7,8.1,48,0.00,,,0.00,WUHU216HW,2013-09-01 20:32:00,
2013-09-01 13:37:00,82.6,60.8,0.00,NNW,338,2.7,9.4,48,0.00,,,0.00,WUHU216HW,2013-09-01 20:37:00,
2013-09-01 13:42:00,83.0,60.6,0.00,South,180,1.8,9.4,47,0.00,,,0.00,WUHU216HW,2013-09-01 20:42:00,
2013-09-01 13:47:00,83.0,60.6,0.00,NW,315,6.3,6.9,47,0.00,,,0.00,WUHU216HW,2013-09-01 20:47:00,
2013-09-01 13:52:00,82.4,60.7,0.00,West,270,1.3,11.6,48,0.00,,,0.00,WUHU216HW,2013-09-01 20:52:00,
2013-09-01 13:57:00,82.4,60.7,0.00,SSE,158,3.4,11.6,48,0.00,,,0.00,WUHU216HW,2013-09-01 20:57:00,
2013-09-01 14:02:00,82.8,61.0,0.00,West,270,3.8,9.6,48,0.00,,,0.00,WUHU216HW,2013-09-01 21:02:00,
2013-09-01 14:07:00,82.6,61.5,0.00,SE,135,2.2,9.4,49,0.00,,,0.00,WUHU216HW,2013-09-01 21:07:00,
2013-09-01 14:12:00,83.2,60.8,0.00,SSE,158,4.3,9.4,47,0.00,,,0.00,WUHU216HW,2013-09-01 21:12:00,
2013-09-01 14:17:00,83.9,60.8,0.00,NW,315,1.8,10.5,46,0.00,,,0.00,WUHU216HW,2013-09-01 21:17:00,
2013-09-01 14:22:00,84.6,60.9,0.00,SE,135,0.9,10.5,45,0.00,,,0.00,WUHU216HW,2013-09-01 21:22:00,
2013-09-01 14:27:00,84.4,60.8,0.00,NNW,338,1.3,8.7,45,0.00,,,0.00,WUHU216HW,2013-09-01 21:27:00,
2013-09-01 14:32:00,84.6,60.9,0.00,WNW,293,5.4,8.7,45,0.00,,,0.00,WUHU216HW,2013-09-01 21:32:00,
2013-09-01 14:37:00,84.2,60.6,0.00,West,270,6.9,9.2,45,0.00,,,0.00,WUHU216HW,2013-09-01 21:37:00,
2013-09-01 14:42:00,84.2,60.6,0.00,NW,315,7.6,9.2,45,0.00,,,0.00,WUHU216HW,2013-09-01 21:42:00,
2013-09-01 14:47:00,83.9,60.2,0.00,NNW,338,1.8,8.5,45,0.00,,,0.00,WUHU216HW,2013-09-01 21:47:00,
2013-09-01 14:52:00,84.4,61.4,0.00,West,270,3.4,8.3,46,0.00,,,0.00,WUHU216HW,2013-09-01 21:52:00,
2013-09-01 14:57:00,84.6,60.3,0.00,NW,315,6.9,8.3,44,0.00,,,0.00,WUHU216HW,2013-09-01 21:57:00,
2013-09-01 15:02:00,85.0,61.2,0.00,NW,315,4.3,7.4,45,0.00,,,0.00,WUHU216HW,2013-09-01 22:02:00,
2013-09-01 15:07:00,84.8,60.4,0.00,NW,315,2.5,6.9,44,0.00,,,0.00,WUHU216HW,2013-09-01 22:07:00,
2013-09-01 15:12:00,85.1,60.8,0.00,WNW,293,2.7,6.9,44,0.00,,,0.00,WUHU216HW,2013-09-01 22:12:00,
2013-09-01 15:17:00,85.3,59.7,0.00,NNW,338,3.1,6.9,42,0.00,,,0.00,WUHU216HW,2013-09-01 22:17:00,
2013-09-01 15:22:00,85.0,59.9,0.00,WSW,248,4.0,8.5,43,0.00,,,0.00,WUHU216HW,2013-09-01 22:22:00,
2013-09-01 15:27:00,85.3,59.7,0.00,NNW,338,4.3,8.5,42,0.00,,,0.00,WUHU216HW,2013-09-01 22:27:00,
2013-09-01 15:32:00,85.3,59.7,0.00,NNW,338,6.3,8.7,42,0.00,,,0.00,WUHU216HW,2013-09-01 22:32:00,
2013-09-01 15:37:00,85.1,59.5,0.00,SSW,203,3.6,8.7,42,0.00,,,0.00,WUHU216HW,2013-09-01 22:37:00,
2013-09-01 15:42:00,85.3,59.7,0.00,NW,315,5.4,8.5,42,0.00,,,0.00,WUHU216HW,2013-09-01 22:42:00,
2013-09-01 15:47:00,85.1,59.5,0.00,South,180,2.5,9.4,42,0.00,,,0.00,WUHU216HW,2013-09-01 22:47:00,
2013-09-01 15:52:00,85.0,59.3,0.00,WNW,293,7.2,9.4,42,0.00,,,0.00,WUHU216HW,2013-09-01 22:52:00,
2013-09-01 15:57:00,85.1,59.5,0.00,North,0,3.4,8.5,42,0.00,,,0.00,WUHU216HW,2013-09-01 22:57:00,
2013-09-01 16:02:00,85.3,59.7,0.00,NW,315,2.5,9.2,42,0.00,,,0.00,WUHU216HW,2013-09-01 23:02:00,
2013-09-01 16:07:00,85.1,59.5,0.00,NNW,338,6.0,9.2,42,0.00,,,0.00,WUHU216HW,2013-09-01 23:07:00,
2013-09-01 16:12:00,85.0,59.9,0.00,NNW,338,8.9,8.9,43,0.00,,,0.00,WUHU216HW,2013-09-01 23:12:00,
2013-09-01 16:17:00,84.8,59.8,0.00,West,270,4.7,8.9,43,0.00,,,0.00,WUHU216HW,2013-09-01 23:17:00,
2013-09-01 16:22:00,85.0,59.3,0.00,West,270,5.4,8.9,42,0.00,,,0.00,WUHU216HW,2013-09-01 23:22:00,
2013-09-01 16:27:00,85.1,59.5,0.00,NNW,338,1.8,5.4,42,0.00,,,0.00,WUHU216HW,2013-09-01 23:27:00,
2013-09-01 16:32:00,85.5,59.2,0.00,NNW,338,2.5,5.4,41,0.00,,,0.00,WUHU216HW,2013-09-01 23:32:00,
2013-09-01 16:37:00,85.3,59.1,0.00,NNE,23,2.9,5.4,41,0.00,,,0.00,WUHU216HW,2013-09-01 23:37:00,
2013-09-01 16:42:00,86.0,60.3,0.00,NW,315,0.4,4.3,42,0.00,,,0.00,WUHU216HW,2013-09-01 23:42:00,
2013-09-01 16:47:00,85.5,59.9,0.00,WSW,248,3.6,6.3,42,0.00,,,0.00,WUHU216HW,2013-09-01 23:47:00,
2013-09-01 16:52:00,85.9,60.1,0.00,NNW,338,1.1,6.3,42,0.00,,,0.00,WUHU216HW,2013-09-01 23:52:00,
2013-09-01 16:57:00,85.3,59.7,0.00,WNW,293,3.4,3.6,42,0.00,,,0.00,WUHU216HW,2013-09-01 23:57:00,
2013-09-01 17:02:00,85.1,59.5,0.00,West,270,7.6,7.6,42,0.00,,,0.00,WUHU216HW,2013-09-02 00:02:00,
2013-09-01 17:07:00,84.6,59.1,0.00,WNW,293,5.4,7.6,42,0.00,,,0.00,WUHU216HW,2013-09-02 00:07:00,
2013-09-01 17:12:00,84.2,59.3,0.00,WNW,293,1.8,6.0,43,0.00,,,0.00,WUHU216HW,2013-09-02 00:12:00,
2013-09-01 17:17:00,84.4,59.5,0.00,SW,225,6.3,6.3,43,0.00,,,0.00,WUHU216HW,2013-09-02 00:17:00,
2013-09-01 17:22:00,84.4,58.9,0.00,NNW,338,4.5,6.3,42,0.00,,,0.00,WUHU216HW,2013-09-02 00:22:00,
2013-09-01 17:27:00,84.1,59.1,0.00,NW,315,2.5,5.8,43,0.00,,,0.00,WUHU216HW,2013-09-02 00:27:00,
2013-09-01 17:32:00,83.9,59.0,0.00,NNW,338,6.5,10.3,43,0.00,,,0.00,WUHU216HW,2013-09-02 00:32:00,
2013-09-01 17:37:00,83.9,59.0,0.00,WNW,293,4.3,10.3,43,0.00,,,0.00,WUHU216HW,2013-09-02 00:37:00,
2013-09-01 17:42:00,83.9,59.0,0.00,West,270,4.7,8.9,43,0.00,,,0.00,WUHU216HW,2013-09-02 00:42:00,
2013-09-01 17:47:00,83.5,58.7,0.00,West,270,1.8,9.2,43,0.00,,,0.00,WUHU216HW,2013-09-02 00:47:00,
2013-09-01 17:52:00,83.5,59.2,0.00,NW,315,6.9,9.2,44,0.00,,,0.00,WUHU216HW,2013-09-02 00:52:00,
2013-09-01 17:57:00,83.2,59.0,0.00,NNW,338,0.9,6.9,44,0.00,,,0.00,WUHU216HW,2013-09-02 00:57:00,
2013-09-01 18:02:00,83.2,59.0,0.00,West,270,2.5,9.2,44,0.00,,,0.00,WUHU216HW,2013-09-02 01:02:00,
2013-09-01 18:07:00,83.2,59.6,0.00,SW,225,1.1,9.2,45,0.00,,,0.00,WUHU216HW,2013-09-02 01:07:00,
2013-09-01 18:12:00,83.0,59.4,0.00,SE,135,3.6,7.2,45,0.00,,,0.00,WUHU216HW,2013-09-02 01:12:00,
2013-09-01 18:17:00,82.4,58.9,0.00,NNW,338,5.4,7.2,45,0.00,,,0.00,WUHU216HW,2013-09-02 01:17:00,
2013-09-01 18:22:00,82.1,58.0,0.00,NW,315,4.7,6.5,44,0.00,,,0.00,WUHU216HW,2013-09-02 01:22:00,
2013-09-01 18:27:00,82.1,58.5,0.00,North,0,1.3,6.9,45,0.00,,,0.00,WUHU216HW,2013-09-02 01:27:00,
2013-09-01 18:32:00,81.7,58.2,0.00,NW,315,2.5,9.8,45,0.00,,,0.00,WUHU216HW,2013-09-02 01:32:00,
2013-09-01 18:37:00,81.5,58.7,0.00,SSW,203,2.5,9.8,46,0.00,,,0.00,WUHU216HW,2013-09-02 01:37:00,
2013-09-01 18:42:00,81.4,57.9,0.00,NNW,338,2.5,8.5,45,0.00,,,0.00,WUHU216HW,2013-09-02 01:42:00,
2013-09-01 18:47:00,81.4,58.5,0.00,NNW,338,1.1,7.2,46,0.00,,,0.00,WUHU216HW,2013-09-02 01:47:00,
2013-09-01 18:52:00,81.0,57.6,0.00,WNW,293,2.0,7.2,45,0.00,,,0.00,WUHU216HW,2013-09-02 01:52:00,
2013-09-01 18:57:00,80.8,57.4,0.00,NNW,338,4.0,5.8,45,0.00,,,0.00,WUHU216HW,2013-09-02 01:57:00,
2013-09-01 19:02:00,80.6,57.9,0.00,NNW,338,1.8,8.5,46,0.00,,,0.00,WUHU216HW,2013-09-02 02:02:00,
2013-09-01 19:07:00,80.3,57.5,0.00,North,0,3.4,8.5,46,0.00,,,0.00,WUHU216HW,2013-09-02 02:07:00,
2013-09-01 19:12:00,80.1,57.3,0.00,NNW,338,0.7,6.3,46,0.00,,,0.00,WUHU216HW,2013-09-02 02:12:00,
2013-09-01 19:17:00,80.1,57.3,0.00,NNW,338,6.9,6.9,46,0.00,,,0.00,WUHU216HW,2013-09-02 02:17:00,
2013-09-01 19:23:00,80.1,56.8,0.00,WSW,248,2.5,6.9,45,0.00,,,0.00,WUHU216HW,2013-09-02 02:23:00,
2013-09-01 19:28:00,79.9,56.6,0.00,NNW,338,2.2,6.9,45,0.00,,,0.00,WUHU216HW,2013-09-02 02:28:00,
2013-09-01 19:33:00,79.7,56.4,0.00,NNW,338,1.3,7.6,45,0.00,,,0.00,WUHU216HW,2013-09-02 02:33:00,
2013-09-01 19:38:00,79.6,56.9,0.00,NW,315,3.4,7.6,46,0.00,,,0.00,WUHU216HW,2013-09-02 02:38:00,
2013-09-01 19:43:00,79.4,56.7,0.00,WNW,293,2.9,5.8,46,0.00,,,0.00,WUHU216HW,2013-09-02 02:43:00,
2013-09-01 19:48:00,79.2,56.5,0.00,NNW,338,3.4,6.7,46,0.00,,,0.00,WUHU216HW,2013-09-02 02:48:00,
2013-09-01 19:52:00,79.0,56.4,0.00,West,270,0.0,6.7,46,0.00,,,0.00,WUHU216HW,2013-09-02 02:52:00,
2013-09-01 19:57:00,78.8,56.3,0.00,NW,315,3.6,6.0,46,0.00,,,0.00,WUHU216HW,2013-09-02 02:57:00,
2013-09-01 20:02:00,78.8,56.3,0.00,West,270,3.4,6.0,46,0.00,,,0.00,WUHU216HW,2013-09-02 03:02:00,
2013-09-01 20:07:00,78.7,56.1,0.00,North,0,1.3,4.7,46,0.00,,,0.00,WUHU216HW,2013-09-02 03:07:00,
2013-09-01 20:13:00,78.5,55.9,0.00,North,0,2.2,4.7,46,0.00,,,0.00,WUHU216HW,2013-09-02 03:13:00,
2013-09-01 20:17:00,78.3,56.3,0.00,NNW,338,4.0,4.0,47,0.00,,,0.00,WUHU216HW,2013-09-02 03:17:00,
2013-09-01 20:22:00,78.1,56.2,0.00,NW,315,1.6,4.3,47,0.00,,,0.00,WUHU216HW,2013-09-02 03:22:00,
2013-09-01 20:27:00,78.1,56.2,0.00,NW,315,3.4,4.3,47,0.00,,,0.00,WUHU216HW,2013-09-02 03:27:00,
2013-09-01 20:32:00,77.9,56.1,0.00,NW,315,2.0,4.7,47,0.00,,,0.00,WUHU216HW,2013-09-02 03:32:00,
2013-09-01 20:37:00,77.8,55.9,0.00,NW,315,2.5,4.7,47,0.00,,,0.00,WUHU216HW,2013-09-02 03:37:00,
2013-09-01 20:42:00,77.8,55.9,0.00,NW,315,0.7,3.1,47,0.00,,,0.00,WUHU216HW,2013-09-02 03:42:00,
2013-09-01 20:47:00,77.8,55.9,0.00,NNW,338,2.5,3.1,47,0.00,,,0.00,WUHU216HW,2013-09-02 03:47:00,
2013-09-01 20:52:00,77.4,56.2,0.00,West,270,3.4,3.4,48,0.00,,,0.00,WUHU216HW,2013-09-02 03:52:00,
2013-09-01 20:57:00,77.4,56.2,0.00,NW,315,1.6,3.4,48,0.00,,,0.00,WUHU216HW,2013-09-02 03:57:00,
2013-09-01 21:01:00,77.2,56.0,0.00,NNW,338,1.8,3.4,48,0.00,,,0.00,WUHU216HW,2013-09-02 04:01:00,
2013-09-01 21:06:00,77.0,55.8,0.00,WNW,293,1.8,2.5,48,0.00,,,0.00,WUHU216HW,2013-09-02 04:06:00,
2013-09-01 21:11:00,76.9,55.7,0.00,North,0,2.2,2.9,48,0.00,,,0.00,WUHU216HW,2013-09-02 04:11:00,
2013-09-01 21:16:00,76.9,55.7,0.00,NW,315,0.2,2.9,48,0.00,,,0.00,WUHU216HW,2013-09-02 04:16:00,
2013-09-01 21:21:00,76.5,56.0,0.00,NW,315,1.1,2.5,49,0.00,,,0.00,WUHU216HW,2013-09-02 04:21:00,
2013-09-01 21:26:00,76.3,56.4,0.00,North,0,2.2,2.5,50,0.00,,,0.00,WUHU216HW,2013-09-02 04:26:00,
2013-09-01 21:31:00,76.1,56.8,0.00,NW,315,2.2,4.0,51,0.00,,,0.00,WUHU216HW,2013-09-02 04:31:00,
2013-09-01 21:37:00,76.0,56.6,0.00,NW,315,2.5,4.0,51,0.00,,,0.00,WUHU216HW,2013-09-02 04:37:00,
2013-09-01 21:42:00,75.8,56.4,0.00,NNW,338,1.8,3.8,51,0.00,,,0.00,WUHU216HW,2013-09-02 04:42:00,
2013-09-01 21:47:00,75.6,56.8,0.00,NW,315,2.5,3.4,52,0.00,,,0.00,WUHU216HW,2013-09-02 04:47:00,
2013-09-01 21:52:00,75.4,56.6,0.00,WNW,293,0.2,4.3,52,0.00,,,0.00,WUHU216HW,2013-09-02 04:52:00,
2013-09-01 21:57:00,75.2,56.4,0.00,NW,315,0.4,4.3,52,0.00,,,0.00,WUHU216HW,2013-09-02 04:57:00,
2013-09-01 22:02:00,75.2,56.4,0.00,NNW,338,0.4,3.1,52,0.00,,,0.00,WUHU216HW,2013-09-02 05:02:00,
2013-09-01 22:07:00,74.9,56.6,0.00,NNW,338,1.6,3.1,53,0.00,,,0.00,WUHU216HW,2013-09-02 05:07:00,
2013-09-01 22:12:00,74.9,56.6,0.00,NW,315,2.2,2.5,53,0.00,,,0.00,WUHU216HW,2013-09-02 05:12:00,
2013-09-01 22:17:00,74.7,56.9,0.00,NW,315,2.9,2.9,54,0.00,,,0.00,WUHU216HW,2013-09-02 05:17:00,
2013-09-01 22:22:00,74.5,56.3,0.00,NW,315,1.1,2.9,53,0.00,,,0.00,WUHU216HW,2013-09-02 05:22:00,
2013-09-01 22:27:00,74.5,56.7,0.00,NNW,338,1.6,3.8,54,0.00,,,0.00,WUHU216HW,2013-09-02 05:27:00,
2013-09-01 22:32:00,74.3,57.1,0.00,NNW,338,1.1,4.7,55,0.00,,,0.00,WUHU216HW,2013-09-02 05:32:00,
2013-09-01 22:37:00,74.2,57.4,0.00,NNW,338,1.8,4.7,56,0.00,,,0.00,WUHU216HW,2013-09-02 05:37:00,
2013-09-01 22:42:00,74.0,57.7,0.00,WNW,293,4.0,6.5,57,0.00,,,0.00,WUHU216HW,2013-09-02 05:42:00,
2013-09-01 22:47:00,73.6,57.9,0.00,NW,315,6.7,6.7,58,0.00,,,0.00,WUHU216HW,2013-09-02 05:47:00,
2013-09-01 22:52:00,73.4,57.7,0.00,NNW,338,1.1,7.6,58,0.00,,,0.00,WUHU216HW,2013-09-02 05:52:00,
2013-09-01 22:57:00,73.1,57.3,0.00,WNW,293,1.1,9.2,58,0.00,,,0.00,WUHU216HW,2013-09-02 05:57:00,
2013-09-01 23:01:00,73.1,57.3,0.00,NNW,338,5.1,9.2,58,0.00,,,0.00,WUHU216HW,2013-09-02 06:01:00,
2013-09-01 23:06:00,72.9,57.2,0.00,WNW,293,3.6,6.9,58,0.00,,,0.00,WUHU216HW,2013-09-02 06:06:00,
2013-09-01 23:12:00,72.9,57.7,0.00,NW,315,1.1,6.9,59,0.00,,,0.00,WUHU216HW,2013-09-02 06:12:00,
2013-09-01 23:16:00,72.7,57.5,0.00,NNW,338,1.6,6.5,59,0.00,,,0.00,WUHU216HW,2013-09-02 06:16:00,
2013-09-01 23:22:00,72.7,57.1,0.00,North,0,2.0,4.3,58,0.00,,,0.00,WUHU216HW,2013-09-02 06:22:00,
2013-09-01 23:27:00,72.5,56.9,0.00,NNW,338,2.5,3.8,58,0.00,,,0.00,WUHU216HW,2013-09-02 06:27:00,
2013-09-01 23:31:00,72.4,57.3,0.00,NW,315,2.5,3.4,59,0.00,,,0.00,WUHU216HW,2013-09-02 06:31:00,
2013-09-01 23:36:00,72.4,57.3,0.00,NNW,338,1.6,4.7,59,0.00,,,0.00,WUHU216HW,2013-09-02 06:36:00,
2013-09-01 23:41:00,72.4,57.3,0.00,NW,315,1.1,4.7,59,0.00,,,0.00,WUHU216HW,2013-09-02 06:41:00,
2013-09-01 23:46:00,72.2,57.1,0.00,NW,315,1.1,4.7,59,0.00,,,0.00,WUHU216HW,2013-09-02 06:46:00,
2013-09-01 23:51:00,72.0,56.9,0.00,NW,315,1.8,4.7,59,0.00,,,0.00,WUHU216HW,2013-09-02 06:51:00,
2013-09-01 23:56:00,71.8,56.7,0.00,NNW,338,2.5,5.4,59,0.00,,,0.00,WUHU216HW,2013-09-02 06:56:00,